Time;durP1;ratioP1;P1;durP2;ratioP2;P2;SDS_P1;SDS_P2;PMS_P1;PMS_P2;Temp;Humidity;BMP_temperature;BMP_pressure;BME280_temperature;BME280_humidity;BME280_pressure;Samples;Min_cycle;Max_cycle;Signal;HPM_P1;HPM_P2
2022/11/28 00:01:49;;;;;;;26.20;17.00;;;6.60;99.90;;;;;;5113680;28;20277;-77
2022/11/28 00:04:15;;;;;;;27.83;18.77;;;6.60;99.90;;;;;;5113296;28;20273;-77
2022/11/28 00:06:44;;;;;;;30.67;18.67;;;6.60;99.90;;;;;;5113331;28;20757;-76
2022/11/28 00:09:12;;;;;;;24.83;17.10;;;6.60;99.90;;;;;;5113182;28;20134;-77
2022/11/28 00:11:43;;;;;;;25.93;17.43;;;6.60;99.90;;;;;;5113723;28;20273;-77
2022/11/28 00:14:09;;;;;;;34.00;19.53;;;6.60;99.90;;;;;;5113161;28;20277;-77
2022/11/28 00:16:35;;;;;;;30.23;18.37;;;6.60;99.90;;;;;;5112512;28;20296;-76
2022/11/28 00:19:03;;;;;;;28.05;17.67;;;6.60;99.90;;;;;;5113105;28;20394;-77
2022/11/28 00:21:30;;;;;;;23.57;16.80;;;6.60;99.90;;;;;;5113741;28;20423;-77
2022/11/28 00:23:57;;;;;;;24.50;16.70;;;6.60;99.90;;;;;;5113754;28;20334;-77
2022/11/28 00:26:28;;;;;;;23.60;15.93;;;6.60;99.90;;;;;;5117585;28;20050;-77
2022/11/28 00:28:55;;;;;;;26.30;15.83;;;6.60;99.90;;;;;;5117452;28;20284;-78
2022/11/28 00:31:29;;;;;;;28.83;16.63;;;6.60;99.90;;;;;;5116528;28;20765;-77
2022/11/28 00:33:55;;;;;;;24.33;15.52;;;6.60;99.90;;;;;;5117392;28;20280;-78
2022/11/28 00:36:22;;;;;;;27.60;17.67;;;6.60;99.90;;;;;;5116642;28;20043;-77
2022/11/28 00:38:48;;;;;;;28.57;17.17;;;6.60;99.90;;;;;;5116532;28;20092;-77
2022/11/28 00:41:20;;;;;;;26.50;15.23;;;6.60;99.90;;;;;;5117041;28;20274;-77
2022/11/28 00:43:48;;;;;;;28.67;17.73;;;6.60;99.90;;;;;;5117012;28;20310;-77
2022/11/28 00:46:14;;;;;;;25.43;16.37;;;6.60;99.90;;;;;;5116889;28;20296;-77
2022/11/28 00:48:40;;;;;;;28.10;17.33;;;6.60;99.90;;;;;;5117153;28;20273;-77
2022/11/28 00:51:15;;;;;;;27.30;16.50;;;6.60;99.90;;;;;;5116832;28;20281;-77
2022/11/28 00:53:43;;;;;;;26.73;16.65;;;6.50;99.90;;;;;;5133325;27;20054;-77
2022/11/28 00:56:11;;;;;;;28.30;19.03;;;6.60;99.90;;;;;;5116816;28;20391;-77
2022/11/28 00:58:37;;;;;;;34.10;19.23;;;6.50;99.90;;;;;;5116041;28;20372;-77
2022/11/28 01:01:15;;;;;;;25.60;16.25;;;6.50;99.90;;;;;;5116972;28;20131;-77
2022/11/28 01:03:41;;;;;;;27.63;18.45;;;6.50;99.90;;;;;;5117096;28;20049;-77
2022/11/28 01:06:08;;;;;;;29.02;18.58;;;6.50;99.90;;;;;;5116499;28;20384;-77
2022/11/28 01:08:35;;;;;;;37.53;20.58;;;6.50;99.90;;;;;;5116103;28;20055;-77
2022/11/28 01:11:02;;;;;;;27.70;17.70;;;6.50;99.90;;;;;;5115461;28;20147;-78
2022/11/28 01:13:27;;;;;;;35.30;19.65;;;6.50;99.90;;;;;;5116664;28;20277;-77
2022/11/28 01:15:53;;;;;;;35.60;19.93;;;6.50;99.90;;;;;;5116696;28;20077;-77
2022/11/28 01:18:19;;;;;;;27.70;17.97;;;6.50;99.90;;;;;;5115248;28;20052;-77
2022/11/28 01:20:45;;;;;;;29.63;19.40;;;6.50;99.90;;;;;;5115312;28;20039;-77
2022/11/28 01:23:10;;;;;;;29.33;19.53;;;6.50;99.90;;;;;;5116360;28;20124;-77
2022/11/28 01:25:36;;;;;;;45.47;21.40;;;6.50;99.90;;;;;;5116442;28;20047;-77
2022/11/28 01:28:02;;;;;;;36.13;21.57;;;6.50;99.90;;;;;;5116155;28;20361;-79
2022/11/28 01:30:28;;;;;;;36.45;20.27;;;6.50;99.90;;;;;;5115655;28;20097;-77
2022/11/28 01:32:54;;;;;;;34.70;20.37;;;6.50;99.90;;;;;;5116350;28;20434;-77
2022/11/28 01:35:19;;;;;;;31.93;20.87;;;6.50;99.90;;;;;;5115622;28;20045;-77
2022/11/28 01:37:45;;;;;;;29.73;20.10;;;6.50;99.90;;;;;;5116240;28;20035;-78
2022/11/28 01:40:12;;;;;;;38.83;20.77;;;6.50;99.90;;;;;;5114844;28;20040;-77
2022/11/28 01:42:38;;;;;;;32.90;20.55;;;6.50;99.90;;;;;;5114936;28;20051;-78
2022/11/28 01:45:15;;;;;;;33.77;20.97;;;6.50;99.90;;;;;;5098116;28;20058;-79
2022/11/28 01:47:42;;;;;;;39.45;22.58;;;6.50;99.90;;;;;;5115960;28;20043;-78
2022/11/28 01:50:08;;;;;;;33.00;21.50;;;6.50;99.90;;;;;;5115721;28;20131;-78
2022/11/28 01:52:37;;;;;;;45.00;24.80;;;6.50;99.90;;;;;;5115891;28;20500;-78
2022/11/28 01:55:05;;;;;;;38.05;23.38;;;6.60;99.90;;;;;;5115922;28;20404;-78
2022/11/28 01:57:30;;;;;;;38.03;23.23;;;6.60;99.90;;;;;;5115824;28;20051;-78
2022/11/28 02:00:22;;;;;;;50.27;26.17;;;6.60;99.90;;;;;;5115959;28;20051;-77
2022/11/28 02:02:53;;;;;;;35.87;23.23;;;6.60;99.90;;;;;;5113697;27;20138;-78
2022/11/28 02:05:21;;;;;;;36.57;23.03;;;6.60;99.90;;;;;;5115450;28;20378;-78
2022/11/28 02:07:47;;;;;;;34.83;22.80;;;6.60;99.90;;;;;;5114510;28;20309;-78
2022/11/28 02:10:23;;;;;;;46.93;25.53;;;6.60;99.90;;;;;;5115404;28;20274;-78
2022/11/28 02:12:59;;;;;;;32.27;21.87;;;6.60;99.90;;;;;;5115795;28;20269;-78
2022/11/28 02:15:42;;;;;;;35.93;23.43;;;6.60;99.90;;;;;;5115252;28;20360;-78
2022/11/28 02:18:56;;;;;;;33.87;22.60;;;6.60;99.90;;;;;;5115158;28;20282;-79
2022/11/28 02:21:45;;;;;;;37.17;22.50;;;6.60;99.90;;;;;;5115293;28;20281;-78
2022/11/28 02:24:36;;;;;;;46.10;25.97;;;6.60;99.90;;;;;;5113796;28;20324;-78
2022/11/28 02:27:11;;;;;;;45.40;25.40;;;6.70;99.90;;;;;;5115294;28;20305;-77
2022/11/28 02:29:55;;;;;;;36.67;24.50;;;6.70;99.90;;;;;;5115367;28;20342;-78
2022/11/28 02:32:53;;;;;;;39.67;25.70;;;6.60;99.90;;;;;;5114835;28;20043;-77
2022/11/28 02:35:39;;;;;;;35.15;23.45;;;6.70;99.90;;;;;;5114858;28;20274;-78
2022/11/28 02:38:17;;;;;;;46.60;26.13;;;6.70;99.90;;;;;;5115279;28;20039;-77
2022/11/28 02:41:29;;;;;;;40.60;23.37;;;6.70;99.90;;;;;;5114926;28;20288;-77
2022/11/28 02:44:00;;;;;;;40.93;26.80;;;6.80;99.90;;;;;;5111936;28;20300;-77
2022/11/28 02:46:39;;;;;;;42.53;24.97;;;6.80;99.90;;;;;;5114184;28;20297;-77
2022/11/28 02:49:11;;;;;;;46.80;27.57;;;6.80;99.90;;;;;;5113906;28;20296;-77
2022/11/28 02:51:41;;;;;;;54.23;28.43;;;6.80;99.90;;;;;;5114865;28;20273;-77
2022/11/28 02:54:12;;;;;;;45.13;26.93;;;6.80;99.90;;;;;;5113981;28;20381;-78
2022/11/28 02:56:38;;;;;;;39.90;26.00;;;6.80;99.90;;;;;;5113545;28;20730;-77
2022/11/28 02:59:17;;;;;;;50.33;28.20;;;6.80;99.90;;;;;;5114638;28;20285;-77
2022/11/28 03:01:43;;;;;;;43.13;25.93;;;6.80;99.90;;;;;;5114751;28;20123;-77
2022/11/28 03:04:30;;;;;;;37.40;25.50;;;6.90;99.90;;;;;;5130736;27;20369;-77
2022/11/28 03:07:17;;;;;;;45.95;27.60;;;6.80;99.90;;;;;;5114504;28;20032;-77
2022/11/28 03:09:55;;;;;;;39.73;27.53;;;6.90;99.90;;;;;;5114703;28;20055;-77
2022/11/28 03:12:50;;;;;;;45.87;28.57;;;6.90;99.90;;;;;;5113103;28;20293;-78
2022/11/28 03:15:22;;;;;;;56.13;29.17;;;6.90;99.90;;;;;;5114132;28;20285;-78
2022/11/28 03:18:31;;;;;;;41.77;26.10;;;6.90;99.90;;;;;;5114526;28;20309;-77
2022/11/28 03:21:08;;;;;;;38.93;25.80;;;6.90;99.90;;;;;;5071168;28;20287;-77
2022/11/28 03:23:43;;;;;;;43.60;28.40;;;6.80;99.90;;;;;;5054504;28;20291;-77
2022/11/28 03:26:41;;;;;;;39.45;25.55;;;6.90;99.90;;;;;;5088970;28;20304;-77
2022/11/28 03:29:17;;;;;;;47.07;28.80;;;6.90;99.90;;;;;;5108044;28;20139;-77
2022/11/28 03:31:49;;;;;;;47.10;27.73;;;6.90;99.90;;;;;;5114056;28;20356;-77
2022/11/28 03:34:19;;;;;;;50.37;28.27;;;6.90;99.90;;;;;;5114085;28;20270;-78
2022/11/28 03:36:54;;;;;;;52.80;29.63;;;7.00;99.90;;;;;;5112958;28;20289;-78
2022/11/28 03:39:24;;;;;;;44.13;26.70;;;7.00;99.90;;;;;;5112597;28;20629;-78
2022/11/28 03:41:58;;;;;;;42.80;27.77;;;7.00;99.90;;;;;;5113949;27;20126;-78
2022/11/28 03:44:31;;;;;;;45.20;26.90;;;7.00;99.90;;;;;;5113695;28;20281;-78
2022/11/28 03:46:59;;;;;;;49.53;29.80;;;7.00;99.90;;;;;;5113709;28;20286;-78
2022/11/28 03:49:49;;;;;;;57.53;28.17;;;7.00;99.90;;;;;;5113165;28;20837;-78
2022/11/28 03:52:22;;;;;;;45.07;26.13;;;7.00;99.90;;;;;;5112730;28;20777;-78
2022/11/28 03:54:59;;;;;;;41.67;25.83;;;7.10;99.90;;;;;;5113843;28;20270;-78
2022/11/28 03:57:57;;;;;;;39.67;24.23;;;7.10;99.90;;;;;;5113521;28;20284;-79
2022/11/28 04:00:24;;;;;;;41.93;25.50;;;7.10;99.90;;;;;;5113383;28;20351;-79
2022/11/28 04:03:07;;;;;;;43.00;26.17;;;7.10;99.90;;;;;;5112459;28;20307;-78
2022/11/28 04:05:53;;;;;;;43.50;26.60;;;7.10;99.90;;;;;;5113367;28;20625;-79
2022/11/28 04:08:22;;;;;;;39.27;25.13;;;7.10;99.90;;;;;;5113501;28;20304;-78
2022/11/28 04:11:14;;;;;;;42.17;24.73;;;7.10;99.90;;;;;;5112427;28;20332;-78
2022/11/28 04:14:01;;;;;;;39.33;23.60;;;7.10;99.90;;;;;;5107395;28;20293;-78
2022/11/28 04:16:44;;;;;;;31.60;21.80;;;7.20;99.90;;;;;;5113143;28;20285;-78
2022/11/28 04:19:16;;;;;;;32.07;21.67;;;7.20;99.90;;;;;;5113504;28;20273;-79
2022/11/28 04:22:13;;;;;;;33.70;23.50;;;7.20;99.90;;;;;;5113149;28;20266;-78
2022/11/28 04:24:48;;;;;;;37.90;22.93;;;7.20;99.90;;;;;;5112239;28;20357;-79
2022/11/28 04:27:22;;;;;;;45.88;25.60;;;7.20;99.90;;;;;;5113385;28;20298;-78
2022/11/28 04:29:53;;;;;;;41.83;24.53;;;7.30;99.90;;;;;;5113611;28;20048;-79
2022/11/28 04:32:21;;;;;;;45.30;24.53;;;7.30;99.90;;;;;;5113495;28;20280;-78
2022/11/28 04:34:52;;;;;;;39.37;23.97;;;7.30;99.90;;;;;;5111752;28;20285;-78
2022/11/28 04:37:20;;;;;;;39.90;23.03;;;7.30;99.90;;;;;;5112207;28;20269;-79
2022/11/28 04:39:48;;;;;;;35.93;23.67;;;7.30;99.90;;;;;;5095011;28;20637;-79
2022/11/28 04:42:22;;;;;;;39.57;23.17;;;7.30;99.90;;;;;;5112039;28;20293;-79
2022/11/28 04:45:12;;;;;;;38.47;23.50;;;7.30;99.90;;;;;;5113011;28;20280;-79
2022/11/28 04:47:37;;;;;;;38.87;24.53;;;7.40;99.90;;;;;;5111840;28;20301;-79
2022/11/28 04:50:04;;;;;;;31.20;21.97;;;7.40;99.90;;;;;;5111998;28;20749;-79
2022/11/28 04:52:54;;;;;;;28.43;20.53;;;7.40;99.90;;;;;;5112928;28;20051;-79
2022/11/28 04:55:28;;;;;;;39.40;23.47;;;7.40;99.90;;;;;;5112219;28;20284;-78
2022/11/28 04:58:15;;;;;;;38.30;23.27;;;7.40;99.90;;;;;;5113047;28;20756;-78
2022/11/28 05:00:42;;;;;;;36.20;22.73;;;7.40;99.90;;;;;;5111593;28;20274;-78
2022/11/28 05:03:09;;;;;;;33.37;21.20;;;7.40;99.90;;;;;;5112076;28;20289;-78
2022/11/28 05:05:44;;;;;;;32.80;21.70;;;7.40;99.90;;;;;;5112666;28;20286;-78
2022/11/28 05:08:10;;;;;;;31.63;21.45;;;7.50;99.90;;;;;;5112856;28;20297;-78
2022/11/28 05:10:36;;;;;;;41.77;23.43;;;7.50;99.90;;;;;;5114020;28;20040;-78
2022/11/28 05:13:02;;;;;;;34.43;23.27;;;7.50;99.90;;;;;;5115695;28;20287;-78
2022/11/28 05:15:27;;;;;;;35.23;21.93;;;7.50;99.90;;;;;;5115556;28;20361;-80
2022/11/28 05:17:53;;;;;;;37.83;22.33;;;7.50;99.90;;;;;;5115548;28;20346;-78
2022/11/28 05:20:19;;;;;;;31.83;20.33;;;7.50;99.90;;;;;;5116635;28;20059;-78
2022/11/28 05:22:44;;;;;;;33.83;21.40;;;7.50;99.90;;;;;;5115216;28;20043;-77
2022/11/28 05:25:10;;;;;;;32.60;20.47;;;7.50;99.90;;;;;;5116627;28;20051;-78
2022/11/28 05:27:36;;;;;;;28.93;19.80;;;7.50;99.90;;;;;;5116040;28;20382;-78
2022/11/28 05:30:03;;;;;;;34.13;20.70;;;7.50;99.90;;;;;;5116293;28;20055;-78
2022/11/28 05:32:30;;;;;;;27.97;19.03;;;7.50;99.90;;;;;;5116207;28;20085;-78
2022/11/28 05:34:56;;;;;;;40.33;21.87;;;7.50;99.90;;;;;;5116221;28;20277;-78
2022/11/28 05:37:21;;;;;;;37.13;21.57;;;7.50;99.90;;;;;;5116203;28;20621;-78
2022/11/28 05:39:47;;;;;;;34.50;21.43;;;7.50;99.90;;;;;;5115900;28;20338;-78
2022/11/28 05:42:13;;;;;;;39.63;21.30;;;7.60;99.90;;;;;;5116119;28;20044;-78
2022/11/28 05:44:39;;;;;;;30.77;18.63;;;7.50;99.90;;;;;;5132047;27;20056;-78
2022/11/28 05:47:04;;;;;;;30.53;20.00;;;7.50;99.90;;;;;;5116148;28;20035;-78
2022/11/28 05:49:30;;;;;;;31.63;19.57;;;7.50;99.90;;;;;;5115961;28;20054;-78
2022/11/28 05:51:56;;;;;;;38.37;20.90;;;7.60;99.90;;;;;;5114657;28;20044;-78
2022/11/28 05:54:21;;;;;;;33.67;19.13;;;7.60;99.90;;;;;;5115846;27;20500;-78
2022/11/28 05:56:47;;;;;;;34.93;20.27;;;7.60;99.90;;;;;;5115563;28;20039;-79
2022/11/28 05:59:13;;;;;;;40.40;21.63;;;7.60;99.90;;;;;;5114882;28;20054;-78
2022/11/28 06:01:39;;;;;;;33.67;21.23;;;7.60;99.90;;;;;;5114205;28;20135;-79
2022/11/28 06:04:04;;;;;;;27.57;19.13;;;7.60;99.90;;;;;;5115014;28;20501;-78
2022/11/28 06:06:32;;;;;;;29.77;18.97;;;7.70;99.90;;;;;;5115615;28;20043;-78
2022/11/28 06:08:58;;;;;;;34.30;19.37;;;7.60;99.90;;;;;;5115262;28;20479;-78
2022/11/28 06:11:26;;;;;;;31.97;19.00;;;7.60;99.90;;;;;;5115532;28;20678;-78
2022/11/28 06:13:52;;;;;;;33.23;20.23;;;7.60;99.90;;;;;;5115226;27;20277;-80
2022/11/28 06:16:23;;;;;;;31.40;19.90;;;7.60;99.90;;;;;;5115490;27;20274;-80
2022/11/28 06:18:57;;;;;;;31.83;19.73;;;7.70;99.90;;;;;;5115574;28;20070;-80
2022/11/28 06:21:23;;;;;;;30.30;19.57;;;7.60;99.90;;;;;;5114794;28;20353;-80
2022/11/28 06:23:49;;;;;;;28.30;19.03;;;7.70;99.90;;;;;;5114745;28;20273;-78
2022/11/28 06:26:18;;;;;;;31.07;19.57;;;7.70;99.90;;;;;;5114963;28;20300;-78
2022/11/28 06:28:43;;;;;;;35.60;21.30;;;7.70;99.90;;;;;;5102336;28;20355;-78
2022/11/28 06:31:11;;;;;;;30.63;19.90;;;7.70;99.90;;;;;;5094799;28;20282;-78
2022/11/28 06:33:37;;;;;;;41.33;22.20;;;7.60;99.90;;;;;;5094435;28;20043;-79
2022/11/28 06:36:04;;;;;;;35.23;21.53;;;7.70;99.90;;;;;;5093743;28;20369;-78
2022/11/28 06:38:31;;;;;;;38.30;22.20;;;7.70;99.90;;;;;;5094786;28;20071;-78
2022/11/28 06:40:58;;;;;;;34.93;20.27;;;7.70;99.90;;;;;;5094427;28;20281;-81
2022/11/28 06:43:25;;;;;;;35.77;20.00;;;7.70;99.90;;;;;;5094548;28;20785;-80
2022/11/28 06:45:51;;;;;;;31.10;19.20;;;7.70;99.90;;;;;;5093706;28;20777;-81
2022/11/28 06:48:17;;;;;;;32.77;19.50;;;7.70;99.90;;;;;;5094453;28;20298;-80
2022/11/28 06:50:43;;;;;;;36.83;18.27;;;7.80;99.90;;;;;;5094168;28;20044;-79
2022/11/28 06:53:08;;;;;;;33.97;18.07;;;7.80;99.90;;;;;;5094365;28;20282;-78
2022/11/28 06:55:34;;;;;;;33.47;18.47;;;7.80;99.90;;;;;;5094354;28;20048;-80
2022/11/28 06:58:00;;;;;;;29.93;18.77;;;7.80;99.90;;;;;;5093977;28;20391;-80
2022/11/28 07:00:26;;;;;;;25.13;15.80;;;7.80;99.90;;;;;;5094544;28;20039;-79
2022/11/28 07:02:52;;;;;;;30.47;16.57;;;7.80;99.90;;;;;;5092794;28;20083;-75
2022/11/28 07:05:18;;;;;;;27.67;16.90;;;7.80;99.90;;;;;;5093129;28;20411;-77
2022/11/28 07:07:44;;;;;;;29.87;17.03;;;7.80;99.90;;;;;;5093963;28;20079;-77
2022/11/28 07:10:10;;;;;;;30.70;18.33;;;7.80;99.90;;;;;;5094196;28;20320;-76
2022/11/28 07:12:36;;;;;;;31.13;16.60;;;7.80;99.90;;;;;;5109760;28;20048;-76
2022/11/28 07:15:02;;;;;;;26.20;14.83;;;7.80;99.90;;;;;;5093934;28;20381;-76
2022/11/28 07:17:28;;;;;;;26.57;16.57;;;7.80;99.90;;;;;;5093803;28;20571;-76
2022/11/28 07:19:53;;;;;;;29.50;16.03;;;7.80;99.90;;;;;;5092780;28;20440;-77
2022/11/28 07:22:19;;;;;;;29.07;18.10;;;7.90;99.90;;;;;;5094131;28;20055;-77
2022/11/28 07:24:47;;;;;;;33.67;17.67;;;7.80;99.90;;;;;;5093941;28;20438;-77
2022/11/28 07:27:12;;;;;;;32.93;16.80;;;7.90;99.90;;;;;;5093839;28;20048;-77
2022/11/28 07:29:39;;;;;;;27.13;15.57;;;;;;;;;;5093893;28;20286;-76
2022/11/28 07:32:06;;;;;;;29.40;15.90;;;7.90;99.90;;;;;;5093729;28;20127;-77
2022/11/28 07:34:33;;;;;;;28.27;15.10;;;7.90;99.90;;;;;;5093473;28;20318;-76
2022/11/28 07:36:59;;;;;;;26.97;16.60;;;7.90;99.90;;;;;;5093549;28;20278;-77
2022/11/28 07:39:25;;;;;;;28.93;15.33;;;7.90;99.90;;;;;;5093748;28;20300;-76
2022/11/28 07:41:50;;;;;;;27.37;15.57;;;7.90;99.90;;;;;;5093551;28;20106;-77
2022/11/28 07:44:17;;;;;;;28.07;16.10;;;7.90;99.90;;;;;;5093267;28;20290;-76
2022/11/28 07:46:46;;;;;;;26.53;15.23;;;7.90;99.90;;;;;;5092362;28;20048;-76
2022/11/28 07:49:14;;;;;;;27.70;15.53;;;7.90;99.90;;;;;;5092371;28;20289;-76
2022/11/28 07:51:40;;;;;;;28.20;15.50;;;7.90;99.90;;;;;;5093754;28;20285;-76
2022/11/28 07:54:07;;;;;;;27.33;15.07;;;7.90;99.90;;;;;;5093387;28;20274;-76
2022/11/28 07:56:37;;;;;;;29.17;15.60;;;7.90;99.90;;;;;;5093702;28;20360;-76
2022/11/28 07:59:04;;;;;;;32.20;16.60;;;7.90;99.90;;;;;;5093330;28;20382;-77
2022/11/28 08:01:32;;;;;;;32.13;15.77;;;7.90;99.90;;;;;;5093649;28;20285;-76
2022/11/28 08:03:58;;;;;;;24.27;14.20;;;7.90;99.90;;;;;;5092340;28;20303;-76
2022/11/28 08:06:29;;;;;;;25.23;13.83;;;7.90;99.90;;;;;;5093539;28;20284;-76
2022/11/28 08:08:56;;;;;;;28.67;15.33;;;7.90;99.90;;;;;;5093310;28;20278;-76
2022/11/28 08:11:24;;;;;;;27.57;15.23;;;7.90;99.90;;;;;;5093373;28;20359;-76
2022/11/28 08:13:50;;;;;;;27.60;16.27;;;8.00;99.90;;;;;;5093213;28;20282;-77
2022/11/28 08:16:23;;;;;;;26.80;15.70;;;8.00;99.90;;;;;;5093322;28;20278;-76
2022/11/28 08:18:50;;;;;;;20.90;12.87;;;7.90;99.90;;;;;;5092280;28;20336;-77
2022/11/28 08:21:19;;;;;;;29.47;15.23;;;8.00;99.90;;;;;;5093559;28;20278;-76
2022/11/28 08:23:45;;;;;;;30.53;14.60;;;8.00;99.90;;;;;;5093357;28;20351;-76
2022/11/28 08:26:14;;;;;;;27.03;14.33;;;8.00;99.90;;;;;;5092947;28;20377;-76
2022/11/28 08:28:40;;;;;;;28.13;14.03;;;8.00;99.90;;;;;;5093097;28;20298;-76
2022/11/28 08:31:16;;;;;;;23.20;14.20;;;8.00;99.90;;;;;;5092998;28;20638;-76
2022/11/28 08:33:42;;;;;;;20.97;12.40;;;8.00;99.90;;;;;;5093251;28;20668;-76
2022/11/28 08:36:10;;;;;;;22.07;13.57;;;8.00;99.90;;;;;;5092930;28;20290;-77
2022/11/28 08:38:36;;;;;;;20.77;12.73;;;8.00;99.90;;;;;;5093040;28;20328;-76
2022/11/28 08:41:04;;;;;;;22.93;13.17;;;8.00;99.90;;;;;;5092859;28;20274;-76
2022/11/28 08:43:32;;;;;;;22.10;12.57;;;8.00;99.90;;;;;;5092935;28;20316;-76
2022/11/28 08:45:58;;;;;;;25.47;13.90;;;8.00;99.90;;;;;;5094854;28;20608;-76
2022/11/28 08:48:23;;;;;;;29.90;16.63;;;8.00;99.90;;;;;;5097046;28;20294;-76
2022/11/28 08:50:50;;;;;;;30.57;15.50;;;8.10;99.90;;;;;;5095726;28;20290;-76
2022/11/28 08:53:15;;;;;;;30.53;16.20;;;8.10;99.90;;;;;;5095702;28;20424;-76
2022/11/28 08:55:43;;;;;;;31.33;17.30;;;8.10;99.90;;;;;;5096757;28;20325;-76
2022/11/28 08:58:12;;;;;;;35.87;16.77;;;8.10;99.90;;;;;;5096534;28;20032;-76
2022/11/28 09:00:38;;;;;;;38.57;18.97;;;8.10;99.90;;;;;;5078877;28;20399;-76
2022/11/28 09:03:04;;;;;;;36.57;18.47;;;;;;;;;;5096503;28;20315;-77
2022/11/28 09:05:31;;;;;;;41.57;19.23;;;8.20;99.90;;;;;;5096580;28;20282;-76
2022/11/28 09:07:57;;;;;;;30.70;17.67;;;8.10;99.90;;;;;;5096414;28;20372;-77
2022/11/28 09:10:23;;;;;;;36.50;18.13;;;8.20;99.90;;;;;;5096478;28;20370;-76
2022/11/28 09:12:50;;;;;;;34.10;19.30;;;8.20;99.90;;;;;;5096616;28;20318;-76
2022/11/28 09:15:17;;;;;;;46.83;21.13;;;8.20;99.90;;;;;;5095292;28;20301;-77
2022/11/28 09:17:42;;;;;;;48.87;21.37;;;8.20;99.90;;;;;;5096369;28;20360;-77
2022/11/28 09:20:08;;;;;;;54.80;22.30;;;8.20;99.90;;;;;;5096108;28;20408;-77
2022/11/28 09:22:34;;;;;;;52.20;22.97;;;8.20;99.90;;;;;;5096236;28;20051;-77
2022/11/28 09:25:00;;;;;;;49.37;21.80;;;8.20;99.90;;;;;;5096030;28;20290;-77
2022/11/28 09:27:25;;;;;;;57.73;22.33;;;8.20;99.90;;;;;;5096488;28;20048;-77
2022/11/28 09:29:51;;;;;;;64.20;24.03;;;8.30;99.90;;;;;;5096099;28;20043;-77
2022/11/28 09:32:17;;;;;;;47.23;22.77;;;8.20;99.90;;;;;;5094882;28;20052;-77
2022/11/28 09:34:42;;;;;;;55.27;24.67;;;8.30;99.90;;;;;;5096074;28;20048;-76
2022/11/28 09:37:08;;;;;;;55.47;24.00;;;8.30;99.90;;;;;;5096026;28;20495;-77
2022/11/28 09:39:34;;;;;;;49.03;23.37;;;8.30;99.90;;;;;;5096111;28;20131;-77
2022/11/28 09:42:27;;;;;;;52.23;23.40;;;8.40;99.90;;;;;;5095802;28;20078;-77
2022/11/28 09:45:01;;;;;;;55.60;24.93;;;8.30;99.90;;;;;;5095174;28;20506;-77
2022/11/28 09:47:30;;;;;;;56.75;23.25;;;8.40;99.90;;;;;;5096211;28;20306;-77
2022/11/28 09:50:13;;;;;;;61.60;26.33;;;8.40;99.90;;;;;;5095658;28;20506;-77
2022/11/28 09:52:47;;;;;;;54.57;24.23;;;8.40;99.90;;;;;;5096074;28;20284;-77
2022/11/28 09:55:53;;;;;;;59.60;25.07;;;8.40;99.90;;;;;;5095659;28;20296;-77
2022/11/28 09:58:44;;;;;;;54.58;23.50;;;8.40;99.90;;;;;;5093125;28;20282;-77
2022/11/28 10:01:22;;;;;;;50.13;23.40;;;8.40;99.90;;;;;;5093174;28;20067;-77
2022/11/28 10:03:55;;;;;;;53.67;23.50;;;8.40;99.90;;;;;;5094675;28;20456;-77
2022/11/28 10:06:33;;;;;;;56.47;25.13;;;8.40;99.90;;;;;;5095315;28;20274;-77
2022/11/28 10:09:14;;;;;;;51.47;23.17;;;8.50;99.90;;;;;;5095503;28;20286;-77
2022/11/28 10:11:49;;;;;;;42.30;21.17;;;8.50;99.90;;;;;;5094632;28;20290;-77
2022/11/28 10:14:46;;;;;;;47.90;23.65;;;8.50;99.90;;;;;;5095223;28;20284;-77
2022/11/28 10:17:45;;;;;;;47.80;21.63;;;8.50;99.90;;;;;;5094849;28;20105;-77
2022/11/28 10:20:18;;;;;;;49.77;22.80;;;8.40;99.90;;;;;;5077228;28;20348;-77
2022/11/28 10:23:10;;;;;;;49.13;21.63;;;8.60;99.90;;;;;;5095318;28;20290;-77
2022/11/28 10:25:47;;;;;;;51.00;22.27;;;8.50;99.90;;;;;;5093794;28;20781;-77
2022/11/28 10:28:18;;;;;;;53.30;23.87;;;8.50;99.90;;;;;;5094531;28;20297;-78
2022/11/28 10:30:55;;;;;;;50.43;23.27;;;8.50;99.90;;;;;;5094094;28;20282;-77
2022/11/28 10:33:39;;;;;;;37.50;20.13;;;8.60;99.90;;;;;;5094806;28;20296;-78
2022/11/28 10:36:05;;;;;;;49.43;21.23;;;8.60;99.90;;;;;;5094749;28;20281;-80
2022/11/28 10:38:33;;;;;;;40.47;20.17;;;8.60;99.90;;;;;;5094821;28;20278;-77
2022/11/28 10:41:16;;;;;;;44.43;20.93;;;8.60;99.90;;;;;;5093667;28;20295;-77
2022/11/28 10:43:45;;;;;;;45.40;19.90;;;8.60;99.90;;;;;;5094616;28;20686;-77
2022/11/28 10:46:29;;;;;;;35.20;17.83;;;8.60;99.90;;;;;;5094592;28;20298;-77
2022/11/28 10:49:02;;;;;;;48.27;19.53;;;8.60;99.90;;;;;;5094568;28;20297;-76
2022/11/28 10:52:10;;;;;;;48.53;21.60;;;8.60;99.90;;;;;;5094483;28;20282;-77
2022/11/28 10:54:57;;;;;;;43.23;19.27;;;8.70;99.90;;;;;;5094779;28;20339;-77
2022/11/28 10:57:30;;;;;;;36.50;18.43;;;8.70;99.90;;;;;;5094462;28;20336;-77
2022/11/28 11:00:13;;;;;;;31.97;16.27;;;8.70;99.90;;;;;;5094714;28;20284;-77
2022/11/28 11:02:48;;;;;;;33.00;17.23;;;8.70;99.90;;;;;;5094493;28;20360;-77
2022/11/28 11:05:21;;;;;;;30.45;17.00;;;8.70;99.90;;;;;;5093022;28;20297;-77
2022/11/28 11:07:55;;;;;;;35.63;16.50;;;;;;;;;;5093594;28;20070;-77
2022/11/28 11:10:34;;;;;;;30.13;15.97;;;;;;;;;;5094126;28;20310;-77
2022/11/28 11:13:09;;;;;;;29.50;15.40;;;;;;;;;;5094304;28;20278;-77
2022/11/28 11:15:35;;;;;;;29.50;14.82;;;;;;;;;;5094285;28;20286;-77
2022/11/28 11:18:23;;;;;;;32.40;15.53;;;8.80;99.90;;;;;;5110176;28;20095;-77
2022/11/28 11:20:49;;;;;;;24.60;14.57;;;8.90;99.90;;;;;;5094152;28;20286;-77
2022/11/28 11:23:20;;;;;;;25.30;14.53;;;8.80;99.90;;;;;;5092950;28;20290;-77
2022/11/28 11:25:57;;;;;;;25.00;14.00;;;8.90;99.90;;;;;;5093970;28;20044;-77
2022/11/28 11:28:40;;;;;;;29.43;15.27;;;8.90;99.90;;;;;;5093745;28;20300;-77
2022/11/28 11:31:25;;;;;;;25.87;14.67;;;8.90;99.90;;;;;;5094109;28;20282;-77
2022/11/28 11:34:00;;;;;;;25.77;13.83;;;8.90;99.90;;;;;;5093647;28;20275;-77
2022/11/28 11:36:31;;;;;;;25.98;14.07;;;8.90;99.90;;;;;;5092873;28;20294;-77
2022/11/28 11:39:11;;;;;;;23.57;14.13;;;9.00;99.90;;;;;;5093913;28;20044;-77
2022/11/28 11:41:42;;;;;;;26.77;14.47;;;9.00;99.90;;;;;;5093794;28;20286;-77
2022/11/28 11:44:14;;;;;;;30.80;15.20;;;9.00;99.90;;;;;;5093867;28;20290;-77
2022/11/28 11:46:53;;;;;;;24.80;14.37;;;9.00;99.90;;;;;;5093982;28;20290;-77
2022/11/28 11:49:33;;;;;;;26.93;14.93;;;9.00;99.90;;;;;;5093485;28;20282;-77
2022/11/28 11:52:03;;;;;;;28.50;15.33;;;9.00;99.90;;;;;;5093808;28;20287;-77
2022/11/28 11:54:30;;;;;;;28.87;14.00;;;9.00;99.90;;;;;;5092404;28;20291;-77
2022/11/28 11:56:57;;;;;;;31.97;15.57;;;9.00;99.90;;;;;;5093521;28;20309;-77
2022/11/28 11:59:55;;;;;;;26.77;14.20;;;9.00;99.90;;;;;;5093244;28;20314;-78
2022/11/28 12:02:44;;;;;;;29.27;15.03;;;9.00;99.90;;;;;;5092880;28;20803;-77
2022/11/28 12:05:17;;;;;;;28.63;15.23;;;9.00;99.90;;;;;;5093469;28;20275;-77
2022/11/28 12:08:09;;;;;;;33.10;16.80;;;9.00;99.90;;;;;;5092209;28;20305;-77
2022/11/28 12:10:45;;;;;;;32.73;16.87;;;9.10;99.90;;;;;;5093207;28;20297;-77
2022/11/28 12:13:18;;;;;;;32.07;16.10;;;9.10;99.90;;;;;;5093557;28;20324;-77
2022/11/28 12:15:59;;;;;;;30.80;16.50;;;9.10;99.90;;;;;;5093452;28;20610;-77
2022/11/28 12:19:09;;;;;;;36.20;17.37;;;9.10;99.90;;;;;;5093290;28;20281;-78
2022/11/28 12:21:56;;;;;;;38.97;19.67;;;9.10;99.90;;;;;;5097484;28;20818;-77
2022/11/28 12:24:43;;;;;;;41.53;19.40;;;9.10;99.90;;;;;;5097674;28;20278;-78
2022/11/28 12:27:33;;;;;;;44.10;21.47;;;9.00;99.90;;;;;;5097458;28;20380;-77
2022/11/28 12:30:11;;;;;;;43.37;20.07;;;9.10;99.90;;;;;;5096351;28;20274;-78
2022/11/28 12:32:53;;;;;;;49.57;20.37;;;9.00;99.90;;;;;;5097212;28;20365;-78
2022/11/28 12:35:41;;;;;;;41.23;20.03;;;9.10;99.90;;;;;;5097209;28;20290;-78
2022/11/28 12:38:22;;;;;;;47.20;20.27;;;9.00;99.90;;;;;;5096373;28;20836;-77
2022/11/28 12:41:11;;;;;;;50.77;21.03;;;9.00;99.90;;;;;;5097260;28;20282;-77
2022/11/28 12:43:45;;;;;;;47.80;20.53;;;9.10;99.90;;;;;;5096845;28;20780;-78
2022/11/28 12:46:34;;;;;;;51.37;21.93;;;9.10;99.90;;;;;;5097380;28;20695;-77
2022/11/28 12:49:13;;;;;;;48.67;22.17;;;9.10;99.90;;;;;;5097307;28;20285;-77
2022/11/28 12:51:39;;;;;;;54.47;21.63;;;;;;;;;;5096856;28;20289;-78
2022/11/28 12:54:41;;;;;;;49.07;21.50;;;9.10;99.90;;;;;;5097068;28;20619;-77
2022/11/28 12:57:24;;;;;;;61.53;24.17;;;9.10;99.90;;;;;;5096150;28;20668;-77
2022/11/28 13:00:11;;;;;;;54.63;21.97;;;9.10;99.90;;;;;;5096916;28;20285;-78
2022/11/28 13:02:49;;;;;;;48.63;21.67;;;9.10;99.90;;;;;;5096515;28;20293;-78
2022/11/28 13:05:38;;;;;;;54.53;22.53;;;9.10;99.90;;;;;;5096973;28;20278;-77
2022/11/28 13:08:13;;;;;;;49.80;21.40;;;9.10;99.90;;;;;;5096486;28;20688;-77